Latest Coastal Weather Observations for Montague Island

IDN60701

Issued at 1:55 am EST Saturday 26 July 2014 (issued every 10 minutes, with the page automatically refreshed every 10 minutes)

About coastal observations | Map of coastal stations | Coastal observations for NSW | Marine services | Other Formats
Station Details ID: 069017 Name: MONTAGUE ISLAND LIGHTHOUSE Lat: -36.25 Lon: 150.23 Height: 52.0 m
Data from the previous 72 hours. | See also: Recent months at Montague Island
Date/Time
EST
Temp

°C
Wind Pressure Rain
since 9am
mm
Weather Cloud Vis
km
Sea
Height
m
Swell
Dir
 
Speed
knots
Gust
knots
hPa Trend Height
m
Period
s
Dir
26/01:30am 13.8 WNW 16 20 1020.5 - 0.0 - - - - - - -
26/01:00am 13.8 W 15 19 1020.5 - 0.0 - - - - - - -
26/12:30am 14.2 WNW 19 23 1020.4 - 0.0 - - - - - - -
26/12:00am 13.9 WNW 14 17 1020.5 - 0.0 - - - - - - -
 
Date/Time
EST
Temp

°C
Wind Pressure Rain
since 9am
mm
Weather Cloud Vis
km
Sea
Height
m
Swell
Dir
 
Speed
knots
Gust
knots
hPa Trend Height
m
Period
s
Dir
25/11:30pm 14.7 WNW 16 19 1020.6 - 0.0 - - - - - - -
25/11:00pm 14.7 WNW 13 18 1020.7 - 0.0 - - - - - - -
25/10:30pm 15.9 WNW 18 23 1020.3 - 0.0 - - - - - - -
25/10:00pm 14.6 WNW 10 14 1020.4 - 0.0 - - - - - - -
25/09:30pm 15.4 WNW 10 12 1020.3 - 0.0 - - - - - - -
25/09:00pm 15.8 WNW 12 13 1020.1 - 0.0 - - - - - - -
25/08:30pm 15.3 WNW 11 13 1019.8 - 0.0 - - - - - - -
25/08:00pm 15.1 W 7 7 1019.7 - 0.0 - - - - - - -
25/07:30pm 15.6 W 7 8 1019.3 - 0.0 - - - - - - -
25/07:00pm 15.7 WNW 8 11 1019.1 - 0.0 - - - - - - -
25/06:30pm 16.7 WSW 8 10 1018.7 - 0.0 - - - - - - -
25/06:00pm 17.9 NNW 7 9 1018.3 - 0.0 - - - - - - -
25/05:30pm 18.2 N 13 17 1017.8 - 0.0 - - - - - - -
25/05:00pm 17.9 NNE 16 20 1017.5 - 0.0 - - - - - - -
25/04:30pm 17.4 NE 14 18 1017.1 - 0.0 - - - - - - -
25/04:00pm 17.5 NE 13 15 1017.1 - 0.0 - - - - - - -
25/03:30pm 18.1 NE 10 13 1017.0 - 0.0 - - - - - - -
25/03:00pm 18.2 NNE 13 15 1016.9 - 0.0 - - - - - - -
25/02:30pm 18.4 NNE 8 10 1017.0 - 0.0 - - - - - - -
25/02:00pm 19.1 N 9 12 1017.1 - 0.0 - - - - - - -
25/01:30pm 17.9 N 12 14 1017.2 - 0.0 - - - - - - -
25/01:00pm 18.0 N 15 19 1017.5 - 0.0 - - - - - - -
25/12:30pm 18.2 N 16 21 1017.6 - 0.0 - - - - - - -
25/12:00pm 17.7 NNW 15 20 1017.9 - 0.0 - - - - - - -
25/11:30am 17.6 N 14 18 1018.5 - 0.0 - - - - - - -
25/11:00am 16.0 N 7 10 1018.9 - 0.0 - - - - - - -
25/10:30am 15.0 NNW 8 11 1019.4 - 0.0 - - - - - - -
25/10:00am 14.7 NW 10 12 1019.5 - 0.0 - - - - - - -
25/09:30am 14.0 NNW 12 14 1019.4 - 0.0 - - - - - - -
25/09:00am 13.9 NNW 10 12 1019.3 - 0.0 - - - - - - -
25/08:30am 13.6 NNW 11 13 1019.1 - 0.0 - - - - - - -
25/08:00am 13.0 NNW 11 14 1018.8 - 0.0 - - - - - - -
25/07:30am 12.5 NNW 13 15 1018.6 - 0.0 - - - - - - -
25/07:00am 12.4 NNW 12 15 1018.2 - 0.0 - - - - - - -
25/06:30am 12.9 NNW 13 16 1018.1 - 0.0 - - - - - - -
25/06:00am 13.3 NNW 11 15 1017.8 - 0.0 - - - - - - -
25/05:30am 13.1 NNW 9 11 1017.6 - 0.0 - - - - - - -
25/05:00am 13.8 NNW 13 16 1017.6 - 0.0 - - - - - - -
25/04:30am 14.5 N 13 17 1017.5 - 0.0 - - - - - - -
25/04:00am 14.1 N 16 18 1017.4 - 0.0 - - - - - - -
25/03:30am 13.8 NNW 10 13 1017.5 - 0.0 - - - - - - -
25/03:00am 13.8 N 12 15 1017.6 - 0.0 - - - - - - -
25/02:30am 13.1 N 13 15 1017.5 - 0.0 - - - - - - -
25/02:00am 12.7 N 7 9 1017.9 - 0.0 - - - - - - -
25/01:30am 13.4 NNW 7 9 1018.0 - 0.0 - - - - - - -
25/01:00am 13.6 N 9 12 1017.9 - 0.0 - - - - - - -
25/12:30am 13.6 N 9 11 1017.9 - 0.0 - - - - - - -
25/12:00am 13.8 N 10 12 1018.1 - 0.0 - - - - - - -
 
Date/Time
EST
Temp

°C
Wind Pressure Rain
since 9am
mm
Weather Cloud Vis
km
Sea
Height
m
Swell
Dir
 
Speed
knots
Gust
knots
hPa Trend Height
m
Period
s
Dir
24/11:30pm 14.3 N 11 13 1018.5 - 0.0 - - - - - - -
24/11:00pm 14.5 NNW 8 10 1018.7 - 0.0 - - - - - - -
24/10:30pm 14.3 NNW 7 8 1018.6 - 0.0 - - - - - - -
24/10:00pm 14.2 NW 6 7 1018.7 - 0.0 - - - - - - -
24/09:30pm 14.3 NW 6 7 1018.8 - 0.0 - - - - - - -
24/09:00pm 14.5 NW 4 5 1018.8 - 0.0 - - - - - - -
24/08:30pm 14.4 NW 5 5 1018.9 - 0.0 - - - - - - -
24/08:00pm 14.9 NNW 5 6 1018.8 - 0.0 - - - - - - -
24/07:30pm 15.6 N 12 15 1018.6 - 0.0 - - - - - - -
24/07:00pm 15.6 N 14 17 1018.5 - 0.0 - - - - - - -
24/06:30pm 15.7 N 13 17 1018.2 - 0.0 - - - - - - -
24/06:00pm 15.8 N 14 18 1018.1 - 0.0 - - - - - - -
24/05:30pm 15.9 N 15 19 1017.9 - 0.0 - - - - - - -
24/05:00pm 15.7 N 15 20 1017.6 - 0.0 - - - - - - -
24/04:30pm 15.3 NNE 16 22 1017.5 - 0.0 - - - - - - -
24/04:00pm 15.7 N 20 24 1017.1 - 0.0 - - - - - - -
24/03:30pm 15.7 NNE 18 21 1016.7 - 0.0 - - - - - - -
24/03:00pm 15.6 NNE 16 19 1016.8 - 0.0 - - - - - - -
24/02:30pm 15.3 N 16 21 1017.2 - 0.0 - - - - - - -
24/02:00pm 15.5 N 16 22 1017.8 - 0.0 - - - - - - -
24/01:30pm 15.3 N 14 20 1018.0 - 0.0 - - - - - - -
24/01:00pm 14.9 N 13 18 1018.3 - 0.0 - - - - - - -
24/12:30pm 14.5 N 14 18 1018.8 - 0.0 - - - - - - -
24/12:00pm 14.3 NNE 11 15 1019.2 - 0.0 - - - - - - -
24/11:30am 13.6 N 8 11 1019.9 - 0.0 - - - - - - -
24/11:00am 12.9 NNW 10 13 1020.5 - 0.0 - - - - - - -
24/10:30am 13.0 NNW 11 14 1021.0 - 0.0 - - - - - - -
24/10:00am 12.0 NNW 11 13 1021.0 - 0.0 - - - - - - -
24/09:30am 11.6 NNW 9 13 1020.9 - 0.0 - - - - - - -
24/09:00am 11.1 NNW 11 13 1020.7 - 0.0 - - - - - - -
24/08:30am 10.8 NNW 12 15 1020.6 - 0.0 - - - - - - -
24/08:00am 10.7 NNW 12 15 1020.5 - 0.0 - - - - - - -
24/07:30am 10.7 NNW 12 14 1020.4 - 0.0 - - - - - - -
24/07:00am 10.7 NNW 8 10 1020.5 - 0.0 - - - - - - -
24/06:30am 10.4 NW 6 8 1020.3 - 0.0 - - - - - - -
24/06:00am 10.6 NNW 7 8 1020.2 - 0.0 - - - - - - -
24/05:30am 10.5 NNW 8 11 1020.1 - 0.0 - - - - - - -
24/05:00am 10.6 NNW 9 10 1020.0 - 0.0 - - - - - - -
24/04:30am 10.6 NNW 9 10 1019.9 - 0.0 - - - - - - -
24/04:00am 10.9 N 10 12 1019.8 - 0.0 - - - - - - -
24/03:30am 11.5 NNW 9 11 1019.7 - 0.0 - - - - - - -
24/03:00am 11.5 NNW 10 12 1019.6 - 0.0 - - - - - - -
24/02:30am 11.6 NNW 8 11 1019.8 - 0.0 - - - - - - -
24/02:00am 11.6 NW 8 11 1020.2 - 0.0 - - - - - - -
24/01:30am 12.0 NNW 9 11 1020.3 - 0.0 - - - - - - -
24/01:00am 12.3 NNW 8 11 1020.6 - 0.0 - - - - - - -
24/12:30am 12.4 NNW 9 10 1020.9 - 0.0 - - - - - - -
24/12:00am 12.5 NNW 8 10 1021.3 - 0.0 - - - - - - -
 
Date/Time
EST
Temp

°C
Wind Pressure Rain
since 9am
mm
Weather Cloud Vis
km
Sea
Height
m
Swell
Dir
 
Speed
knots
Gust
knots
hPa Trend Height
m
Period
s
Dir
23/11:30pm 12.4 NNW 7 10 1021.8 - 0.0 - - - - - - -
23/11:00pm 12.8 NW 7 9 1022.0 - 0.0 - - - - - - -
23/10:30pm 12.5 NW 6 8 1022.2 - 0.0 - - - - - - -
23/10:00pm 12.5 NW 6 8 1022.3 - 0.0 - - - - - - -
23/09:30pm 12.6 NW 8 9 1022.3 - 0.0 - - - - - - -
23/09:00pm 12.7 NW 5 6 1022.2 - 0.0 - - - - - - -
23/08:30pm 12.9 NW 5 6 1022.2 - 0.0 - - - - - - -
23/08:00pm 13.2 NNW 6 10 1022.3 - 0.0 - - - - - - -
23/07:30pm 13.4 N 7 9 1022.2 - 0.0 - - - - - - -
23/07:00pm 13.3 N 7 8 1022.1 - 0.0 - - - - - - -
23/06:30pm 13.5 NNE 6 8 1022.0 - 0.0 - - - - - - -
23/06:00pm 13.3 N 6 9 1021.9 - 0.0 - - - - - - -
23/05:30pm 13.4 NNE 5 6 1021.5 - 0.0 - - - - - - -
23/05:00pm 13.5 NNE 4 6 1021.4 - 0.0 - - - - - - -
23/04:30pm 13.5 NE 4 6 1021.4 - 0.0 - - - - - - -
23/04:00pm 13.6 NNE 4 6 1021.4 - 0.0 - - - - - - -
23/03:30pm 13.8 NNE 4 5 1021.4 - 0.0 - - - - - - -
23/03:00pm 14.2 NE 4 6 1021.5 - 0.0 - - - - - - -
23/02:30pm 14.3 NE 5 7 1021.5 - 0.0 - - - - - - -
23/02:00pm 14.2 ENE 4 6 1021.6 - 0.0 - - - - - - -
23/01:30pm 14.2 ENE 4 6 1021.9 - 0.0 - - - - - - -
23/01:00pm 14.2 E 4 6 1022.3 - 0.0 - - - - - - -
23/12:30pm 13.8 E 3 5 1022.8 - 0.0 - - - - - - -
23/12:00pm 14.1 E 3 4 1023.4 - 0.0 - - - - - - -
23/11:30am 14.2 E 2 4 1024.0 - 0.0 - - - - - - -
23/11:00am 14.3 NE 2 3 1024.5 - 0.0 - - - - - - -
23/10:30am 14.6 W 3 5 1024.8 - 0.0 - - - - - - -
23/10:00am 13.8 W 4 6 1025.0 - 0.0 - - - - - - -
23/09:30am 13.4 W 5 6 1024.9 - 0.0 - - - - - - -
23/09:00am 12.5 W 5 6 1024.7 - 0.0 - - - - - - -
23/08:30am 12.4 WSW 5 7 1024.6 - 0.0 - - - - - - -
23/08:00am 11.4 W 4 5 1024.4 - 0.0 - - - - - - -
23/07:30am 10.4 W 4 5 1024.4 - 0.0 - - - - - - -
23/07:00am 9.8 WNW 4 5 1024.3 - 0.0 - - - - - - -
23/06:30am 9.9 W 5 6 1023.9 - 0.0 - - - - - - -
23/06:00am 10.1 W 4 5 1023.5 - 0.0 - - - - - - -
23/05:30am 10.6 W 6 7 1023.5 - 0.0 - - - - - - -
23/05:00am 10.3 W 4 6 1023.3 - 0.0 - - - - - - -
23/04:30am 10.6 W 4 5 1023.1 - 0.0 - - - - - - -
23/04:00am 10.9 SW 3 5 1023.0 - 0.0 - - - - - - -
23/03:30am 10.8 WSW 4 5 1023.0 - 0.0 - - - - - - -
23/03:00am 10.9 WSW 5 6 1023.1 - 0.0 - - - - - - -
23/02:30am 11.1 WSW 5 6 1023.5 - 0.0 - - - - - - -
23/02:00am 11.3 W 7 9 1023.6 - 0.0 - - - - - - -

Other Formats:

Comma delimited format used in spreadsheet applications
http://www.bom.gov.au/fwo/IDN60701/IDN60701.94939.axf

JavaScript Object Notation format (JSON) in row-major order
http://www.bom.gov.au/fwo/IDN60701/IDN60701.94939.json